createdAt,value
2022-11-12T00:02:03.951Z,38.03
2022-11-12T00:04:30.255Z,35.28
2022-11-12T00:06:56.519Z,39.30
2022-11-12T00:09:22.772Z,33.40
2022-11-12T00:11:48.962Z,32.88
2022-11-12T00:14:15.179Z,39.58
2022-11-12T00:16:41.381Z,36.15
2022-11-12T00:19:07.909Z,37.35
2022-11-12T00:21:34.148Z,39.15
2022-11-12T00:24:00.346Z,37.00
2022-11-12T00:26:26.544Z,33.65
2022-11-12T00:28:52.738Z,37.80
2022-11-12T00:31:18.941Z,38.53
2022-11-12T00:33:45.199Z,37.53
2022-11-12T00:36:11.449Z,34.63
2022-11-12T00:38:37.672Z,42.70
2022-11-12T00:41:03.883Z,38.35
2022-11-12T00:43:30.128Z,37.13
2022-11-12T00:45:56.356Z,39.97
2022-11-12T00:48:22.739Z,41.63
2022-11-12T00:50:49.060Z,40.05
2022-11-12T00:53:15.295Z,39.95
2022-11-12T00:55:41.500Z,41.28
2022-11-12T00:58:07.700Z,41.58
2022-11-12T01:00:33.903Z,39.85
2022-11-12T01:03:00.154Z,37.38
2022-11-12T01:05:26.349Z,36.60
2022-11-12T01:07:55.949Z,35.88
2022-11-12T01:10:22.560Z,39.53
2022-11-12T01:12:48.746Z,39.05
2022-11-12T01:15:16.668Z,43.17
2022-11-12T01:17:42.926Z,40.88
2022-11-12T01:20:09.119Z,40.38
2022-11-12T01:22:35.364Z,39.10
2022-11-12T01:25:01.589Z,39.33
2022-11-12T01:27:27.786Z,41.63
2022-11-12T01:29:54.028Z,38.25
2022-11-12T01:32:20.265Z,39.65
2022-11-12T01:34:46.481Z,37.72
2022-11-12T01:37:12.682Z,40.22
2022-11-12T01:39:38.892Z,40.58
2022-11-12T01:42:05.099Z,42.40
2022-11-12T01:44:31.418Z,40.38
2022-11-12T01:46:57.853Z,40.38
2022-11-12T01:49:24.049Z,41.03
2022-11-12T01:51:50.266Z,39.38
2022-11-12T01:54:16.480Z,42.53
2022-11-12T01:56:42.787Z,36.25
2022-11-12T01:59:09.046Z,41.50
2022-11-12T02:01:35.308Z,39.47
2022-11-12T02:04:01.669Z,40.83
2022-11-12T02:06:27.933Z,41.88
2022-11-12T02:08:54.298Z,41.08
2022-11-12T02:11:20.482Z,40.20
2022-11-12T02:14:00.809Z,44.67
2022-11-12T02:16:27.014Z,40.78
2022-11-12T02:18:53.204Z,39.58
2022-11-12T02:21:19.400Z,41.78
2022-11-12T02:23:45.596Z,41.03
2022-11-12T02:26:11.786Z,40.60
2022-11-12T02:28:37.979Z,39.03
2022-11-12T02:31:04.183Z,40.97
2022-11-12T02:33:30.383Z,43.40
2022-11-12T02:35:56.598Z,38.55
2022-11-12T02:38:22.956Z,40.60
2022-11-12T02:40:49.308Z,42.10
2022-11-12T02:43:15.512Z,39.47
2022-11-12T02:45:41.711Z,41.97
2022-11-12T02:48:07.909Z,44.10
2022-11-12T02:50:34.110Z,42.80
2022-11-12T02:53:00.331Z,42.83
2022-11-12T02:55:26.527Z,41.42
2022-11-12T02:57:52.736Z,40.63
2022-11-12T03:00:18.928Z,39.15
2022-11-12T03:02:58.812Z,40.83
2022-11-12T03:05:25.132Z,36.10
2022-11-12T03:07:51.830Z,38.55
2022-11-12T03:10:18.018Z,39.10
2022-11-12T03:12:44.220Z,40.72
2022-11-12T03:15:10.419Z,39.95
2022-11-12T03:17:36.607Z,38.70
2022-11-12T03:20:02.825Z,42.92
2022-11-12T03:22:29.012Z,39.38
2022-11-12T03:24:55.247Z,39.25
2022-11-12T03:27:21.437Z,38.42
2022-11-12T03:29:47.650Z,37.08
2022-11-12T03:32:13.886Z,37.97
2022-11-12T03:34:40.084Z,38.65
2022-11-12T03:37:09.403Z,35.90
2022-11-12T03:39:36.126Z,39.53
2022-11-12T03:42:02.314Z,35.55
2022-11-12T03:44:28.768Z,38.03
2022-11-12T03:46:55.018Z,39.85
2022-11-12T03:49:21.210Z,35.25
2022-11-12T03:51:47.495Z,41.65
2022-11-12T03:54:13.697Z,38.90
2022-11-12T03:56:39.894Z,39.58
2022-11-12T03:59:06.084Z,33.65
2022-11-12T04:01:32.354Z,35.08
2022-11-12T04:03:58.595Z,33.13
2022-11-12T04:06:43.478Z,38.38
2022-11-12T04:09:09.683Z,36.95
2022-11-12T04:11:36.011Z,37.28
2022-11-12T04:14:02.252Z,37.13
2022-11-12T04:16:47.036Z,36.58
2022-11-12T04:19:31.722Z,38.17
2022-11-12T04:21:57.951Z,34.50
2022-11-12T04:24:42.720Z,35.63
2022-11-12T04:27:08.939Z,37.10
2022-11-12T04:29:53.632Z,36.85
2022-11-12T04:32:19.840Z,41.33
2022-11-12T04:34:46.088Z,35.58
2022-11-12T04:37:12.353Z,37.08
2022-11-12T04:39:38.557Z,34.22
2022-11-12T04:42:23.407Z,41.13
2022-11-12T04:45:05.021Z,37.67
2022-11-12T04:47:31.294Z,36.22
2022-11-12T04:49:57.522Z,35.13
2022-11-12T04:52:23.719Z,37.85
2022-11-12T04:54:49.958Z,37.65
2022-11-12T04:57:16.156Z,39.00
2022-11-12T04:59:42.424Z,37.20
2022-11-12T05:02:08.612Z,36.72
2022-11-12T05:04:34.807Z,36.25
2022-11-12T05:07:01.100Z,35.55
2022-11-12T05:09:27.310Z,39.55
2022-11-12T05:11:55.167Z,34.13
2022-11-12T05:14:21.416Z,35.25
2022-11-12T05:16:47.688Z,36.70
2022-11-12T05:19:13.895Z,36.95
2022-11-12T05:21:59.027Z,34.20
2022-11-12T05:24:40.976Z,36.25
2022-11-12T05:27:07.983Z,36.50
2022-11-12T05:29:34.218Z,34.78
2022-11-12T05:32:00.511Z,34.65
2022-11-12T05:34:26.745Z,33.55
2022-11-12T05:36:52.958Z,37.08
2022-11-12T05:39:19.273Z,30.10
2022-11-12T05:42:11.466Z,31.52
2022-11-12T05:44:31.688Z,38.67
2022-11-12T05:46:57.879Z,36.80
2022-11-12T05:49:24.066Z,32.35
2022-11-12T05:51:50.311Z,32.92
2022-11-12T05:54:16.499Z,36.42
2022-11-12T05:56:42.732Z,35.65
2022-11-12T05:59:09.079Z,32.10
2022-11-12T06:01:38.241Z,32.75
2022-11-12T06:04:04.469Z,36.67
2022-11-12T06:06:30.664Z,32.92
2022-11-12T06:08:57.040Z,32.22
2022-11-12T06:11:23.244Z,35.00
2022-11-12T06:13:49.444Z,34.38
2022-11-12T06:16:15.631Z,34.00
2022-11-12T06:18:41.823Z,35.72
2022-11-12T06:21:20.252Z,34.20
2022-11-12T06:23:46.440Z,35.42
2022-11-12T06:26:12.622Z,32.92
2022-11-12T06:28:38.849Z,33.53
2022-11-12T06:31:05.066Z,35.08
2022-11-12T06:33:31.320Z,32.28
2022-11-12T06:35:57.954Z,35.70
2022-11-12T06:38:24.776Z,33.60
2022-11-12T06:40:51.169Z,33.42
2022-11-12T06:43:17.357Z,33.78
2022-11-12T06:45:43.551Z,32.72
2022-11-12T06:48:09.742Z,34.78
2022-11-12T06:50:35.934Z,36.40
2022-11-12T06:53:02.140Z,33.80
2022-11-12T06:55:28.327Z,36.17
2022-11-12T06:57:54.579Z,35.42
2022-11-12T07:00:20.796Z,36.47
2022-11-12T07:02:47.166Z,37.25
2022-11-12T07:05:13.363Z,39.92
2022-11-12T07:07:39.942Z,37.22
2022-11-12T07:10:06.171Z,33.65
2022-11-12T07:12:32.364Z,38.50
2022-11-12T07:14:58.583Z,38.60
2022-11-12T07:17:24.773Z,41.38
2022-11-12T07:19:50.958Z,37.88
2022-11-12T07:22:17.302Z,37.05
2022-11-12T07:24:43.553Z,42.78
2022-11-12T07:27:09.748Z,39.33
2022-11-12T07:29:47.467Z,38.38
2022-11-12T07:32:14.526Z,38.08
2022-11-12T07:34:40.726Z,41.70
2022-11-12T07:37:06.956Z,42.53
2022-11-12T07:39:33.169Z,35.50
2022-11-12T07:41:59.359Z,41.22
2022-11-12T07:44:25.981Z,40.10
2022-11-12T07:46:52.196Z,37.20
2022-11-12T07:49:18.393Z,38.67
2022-11-12T07:51:44.599Z,37.65
2022-11-12T07:54:10.788Z,40.65
2022-11-12T07:56:37.002Z,39.30
2022-11-12T07:59:03.279Z,39.25
2022-11-12T08:01:29.558Z,38.95
2022-11-12T08:03:55.808Z,40.92
2022-11-12T08:06:22.026Z,39.72
2022-11-12T08:08:48.219Z,39.17
2022-11-12T08:11:14.452Z,34.13
2022-11-12T08:13:40.708Z,29.63
2022-11-12T08:16:06.891Z,29.65
2022-11-12T08:18:34.085Z,37.08
2022-11-12T08:21:00.560Z,32.70
2022-11-12T08:23:26.767Z,28.25
2022-11-12T08:25:53.007Z,30.35
2022-11-12T08:28:19.258Z,28.38
2022-11-12T08:30:45.461Z,30.48
2022-11-12T08:33:11.712Z,32.97
2022-11-12T08:35:38.008Z,33.63
2022-11-12T08:38:07.776Z,31.30
2022-11-12T08:40:34.012Z,30.45
2022-11-12T08:43:00.297Z,33.03
2022-11-12T08:45:26.534Z,30.38
2022-11-12T08:47:52.831Z,29.55
2022-11-12T08:50:19.057Z,29.13
2022-11-12T08:52:45.267Z,29.25
2022-11-12T08:55:11.454Z,29.70
2022-11-12T08:57:37.658Z,27.33
2022-11-12T09:00:03.863Z,29.38
2022-11-12T09:02:33.520Z,26.25
2022-11-12T09:04:59.724Z,28.42
2022-11-12T09:07:48.860Z,26.65
2022-11-12T09:10:12.110Z,25.15
2022-11-12T09:12:38.427Z,25.88
2022-11-12T09:15:35.866Z,25.63
2022-11-12T09:17:51.245Z,23.75
2022-11-12T09:20:17.519Z,26.55
2022-11-12T09:22:43.763Z,25.85
2022-11-12T09:25:09.974Z,25.17
2022-11-12T09:27:36.241Z,24.38
2022-11-12T09:30:02.534Z,24.63
2022-11-12T09:32:29.214Z,26.17
2022-11-12T09:34:55.549Z,25.60
2022-11-12T09:37:21.958Z,24.20
2022-11-12T09:39:48.217Z,28.52
2022-11-12T09:42:14.610Z,23.58
2022-11-12T09:44:40.871Z,25.70
2022-11-12T09:47:07.988Z,23.40
2022-11-12T09:49:34.206Z,24.20
2022-11-12T09:52:00.462Z,23.63
2022-11-12T09:54:27.007Z,22.50
2022-11-12T09:56:53.263Z,28.13
2022-11-12T09:59:19.588Z,24.15
2022-11-12T10:01:45.916Z,24.75
2022-11-12T10:04:12.216Z,25.27
2022-11-12T10:06:38.519Z,21.63
2022-11-12T10:09:04.803Z,21.40
2022-11-12T10:11:31.180Z,22.80
2022-11-12T10:13:57.461Z,21.10
2022-11-12T10:16:53.476Z,25.25
2022-11-12T10:19:19.739Z,23.45
2022-11-12T10:21:46.009Z,25.60
2022-11-12T10:24:12.268Z,23.42
2022-11-12T10:26:38.533Z,24.95
2022-11-12T10:29:04.796Z,22.80
2022-11-12T10:31:31.063Z,24.02
2022-11-12T10:33:57.315Z,23.05
2022-11-12T10:36:23.618Z,24.27
2022-11-12T10:38:49.911Z,22.38
2022-11-12T10:41:16.186Z,23.27
2022-11-12T10:43:42.441Z,24.52
2022-11-12T10:46:08.789Z,23.27
2022-11-12T10:48:36.104Z,25.70
2022-11-12T10:51:04.086Z,23.02
2022-11-12T10:55:56.694Z,21.08
2022-11-12T10:58:22.972Z,21.77
2022-11-12T11:00:49.298Z,21.52
2022-11-12T11:03:16.086Z,24.60
2022-11-12T11:05:42.347Z,26.00
2022-11-12T11:08:08.609Z,22.83
2022-11-12T11:10:34.878Z,23.17
2022-11-12T11:13:01.144Z,21.65
2022-11-12T11:15:27.394Z,22.65
2022-11-12T11:17:53.679Z,24.98
2022-11-12T11:20:20.220Z,22.13
2022-11-12T11:22:46.484Z,23.77
2022-11-12T11:25:12.756Z,21.77
2022-11-12T11:27:39.085Z,21.42
2022-11-12T11:30:05.362Z,22.70
2022-11-12T11:32:37.023Z,21.42
2022-11-12T11:35:03.784Z,30.88
2022-11-12T11:37:31.426Z,22.50
2022-11-12T11:39:57.678Z,26.77
2022-11-12T11:42:23.940Z,19.92
2022-11-12T11:44:50.218Z,18.30
2022-11-12T11:47:16.491Z,21.52
2022-11-12T11:49:43.222Z,19.58
2022-11-12T11:52:09.483Z,22.25
2022-11-12T11:54:35.790Z,21.65
2022-11-12T11:57:02.042Z,18.23
2022-11-12T11:59:28.486Z,21.30
2022-11-12T12:01:54.752Z,21.17
2022-11-12T12:04:21.055Z,19.88
2022-11-12T12:06:47.358Z,18.17
2022-11-12T12:09:13.652Z,18.00
2022-11-12T12:11:39.914Z,17.45
2022-11-12T12:14:06.166Z,16.45
2022-11-12T12:16:32.435Z,16.40
2022-11-12T12:18:58.707Z,18.63
2022-11-12T12:21:26.406Z,20.05
2022-11-12T12:23:52.693Z,17.45
2022-11-12T12:26:18.950Z,16.95
2022-11-12T12:28:45.289Z,18.50
2022-11-12T12:31:11.551Z,17.25
2022-11-12T12:33:37.824Z,16.83
2022-11-12T12:36:04.100Z,18.52
2022-11-12T12:38:31.970Z,26.02
2022-11-12T12:40:58.848Z,20.40
2022-11-12T12:43:25.158Z,18.27
2022-11-12T12:45:54.460Z,16.17
2022-11-12T12:48:20.774Z,18.08
2022-11-12T12:50:47.063Z,17.15
2022-11-12T12:53:13.321Z,17.35
2022-11-12T12:55:41.402Z,19.80
2022-11-12T13:00:33.985Z,16.80
2022-11-12T13:03:00.328Z,16.85
2022-11-12T13:05:26.603Z,17.55
2022-11-12T13:07:52.860Z,17.73
2022-11-12T13:10:19.257Z,18.33
2022-11-12T13:12:47.599Z,19.58
2022-11-12T13:15:13.922Z,17.88
2022-11-12T13:17:40.211Z,15.23
2022-11-12T13:20:07.435Z,17.33
2022-11-12T13:22:33.715Z,16.85
2022-11-12T13:24:59.969Z,15.73
2022-11-12T13:27:26.242Z,17.00
2022-11-12T13:30:18.282Z,18.27
2022-11-12T13:32:44.732Z,15.77
2022-11-12T13:35:10.991Z,17.48
2022-11-12T13:37:37.419Z,17.67
2022-11-12T13:40:03.952Z,17.60
2022-11-12T13:42:48.431Z,16.60
2022-11-12T13:45:14.684Z,17.35
2022-11-12T13:47:40.933Z,17.15
2022-11-12T13:50:07.286Z,17.55
2022-11-12T13:52:33.616Z,18.48
2022-11-12T13:54:59.887Z,18.15
2022-11-12T13:57:26.937Z,16.58
2022-11-12T13:59:53.133Z,17.45
2022-11-12T14:02:19.387Z,18.45
2022-11-12T14:04:45.650Z,18.30
2022-11-12T14:07:11.963Z,16.20
2022-11-12T14:09:38.807Z,16.63
2022-11-12T14:12:05.116Z,17.75
2022-11-12T14:14:31.378Z,17.33
2022-11-12T14:16:57.730Z,20.00
2022-11-12T14:19:23.995Z,17.77
2022-11-12T14:21:50.258Z,19.67
2022-11-12T14:24:16.519Z,19.02
2022-11-12T14:26:42.838Z,21.33
2022-11-12T14:29:09.108Z,19.75
2022-11-12T14:31:35.423Z,19.63
2022-11-12T14:34:01.683Z,18.45
2022-11-12T14:36:29.528Z,19.20
2022-11-12T14:38:55.987Z,22.77
2022-11-12T14:41:22.262Z,22.23
2022-11-12T14:43:50.139Z,19.27
2022-11-12T14:46:21.284Z,19.85
2022-11-12T14:48:47.587Z,20.42
2022-11-12T14:51:13.898Z,19.30
2022-11-12T14:53:40.178Z,20.77
2022-11-12T14:56:06.448Z,21.00
2022-11-12T14:58:33.008Z,21.98
2022-11-12T15:00:59.329Z,19.35
2022-11-12T15:03:25.995Z,18.42
2022-11-12T15:05:52.619Z,20.20
2022-11-12T15:08:18.871Z,17.98
2022-11-12T15:10:45.151Z,22.02
2022-11-12T15:13:11.442Z,18.70
2022-11-12T15:15:37.708Z,18.98
2022-11-12T15:18:04.080Z,20.25
2022-11-12T15:20:30.371Z,20.73
2022-11-12T15:22:56.638Z,20.25
2022-11-12T15:25:23.055Z,21.85
2022-11-12T15:27:49.375Z,21.13
2022-11-12T15:30:16.214Z,24.75
2022-11-12T15:32:42.504Z,20.13
2022-11-12T15:35:08.792Z,20.27
2022-11-12T15:37:35.066Z,20.55
2022-11-12T15:40:01.824Z,22.83
2022-11-12T15:42:28.179Z,21.52
2022-11-12T15:44:54.444Z,21.50
2022-11-12T15:47:21.456Z,22.48
2022-11-12T15:49:47.920Z,21.10
2022-11-12T15:52:14.180Z,23.73
2022-11-12T15:54:41.333Z,25.33
2022-11-12T15:57:07.690Z,23.10
2022-11-12T15:59:33.963Z,24.77
2022-11-12T16:02:00.212Z,25.75
2022-11-12T16:04:26.495Z,26.50
2022-11-12T16:06:52.795Z,22.83
2022-11-12T16:09:19.102Z,23.90
2022-11-12T16:11:45.378Z,22.92
2022-11-12T16:14:11.693Z,22.80
2022-11-12T16:16:39.603Z,22.83
2022-11-12T16:19:05.879Z,23.70
2022-11-12T16:21:32.312Z,25.77
2022-11-12T16:23:58.588Z,24.27
2022-11-12T16:26:26.335Z,24.40
2022-11-12T16:28:52.592Z,23.50
2022-11-12T16:31:18.926Z,25.85
2022-11-12T16:33:45.224Z,27.13
2022-11-12T16:36:11.512Z,24.60
2022-11-12T16:38:37.791Z,24.08
2022-11-12T16:41:04.125Z,23.17
2022-11-12T16:43:30.667Z,26.10
2022-11-12T16:45:57.016Z,29.48
2022-11-12T16:48:23.212Z,29.15
2022-11-12T16:50:49.715Z,26.65
2022-11-12T16:53:15.969Z,28.00
2022-11-12T16:55:42.286Z,28.08
2022-11-12T16:58:08.687Z,24.75
2022-11-12T17:00:35.189Z,26.73
2022-11-12T17:03:01.485Z,25.38
2022-11-12T17:05:27.768Z,28.67
2022-11-12T17:07:54.037Z,30.85
2022-11-12T17:10:23.922Z,33.08
2022-11-12T17:12:50.153Z,29.10
2022-11-12T17:15:16.414Z,29.38
2022-11-12T17:17:42.647Z,32.75
2022-11-12T17:20:08.958Z,29.13
2022-11-12T17:22:35.546Z,29.50
2022-11-12T17:25:01.746Z,33.95
2022-11-12T17:27:27.943Z,27.33
2022-11-12T17:29:54.155Z,30.30
2022-11-12T17:32:20.406Z,32.60
2022-11-12T17:34:46.698Z,31.77
2022-11-12T17:37:12.918Z,29.88
2022-11-12T17:39:39.120Z,30.13
2022-11-12T17:42:05.341Z,30.33
2022-11-12T17:44:31.615Z,30.85
2022-11-12T17:46:57.801Z,45.65
2022-11-12T17:49:24.538Z,37.78
2022-11-12T17:51:50.736Z,34.35
2022-11-12T17:54:16.939Z,35.15
2022-11-12T17:56:43.198Z,34.30
2022-11-12T17:59:09.458Z,29.55
2022-11-12T18:01:35.814Z,33.70
2022-11-12T18:04:02.131Z,36.03
2022-11-12T18:06:28.346Z,32.38
2022-11-12T18:08:54.557Z,34.08
2022-11-12T18:11:20.746Z,31.67
2022-11-12T18:13:46.941Z,35.67
2022-11-12T18:16:14.805Z,32.25
2022-11-12T18:18:41.220Z,32.55
2022-11-12T18:21:07.475Z,34.60
2022-11-12T18:23:33.661Z,33.53
2022-11-12T18:26:01.680Z,35.40
2022-11-12T18:28:27.943Z,34.30
2022-11-12T18:30:54.142Z,35.70
2022-11-12T18:33:20.350Z,35.78
2022-11-12T18:35:48.314Z,37.28
2022-11-12T18:38:14.576Z,32.63
2022-11-12T18:40:40.796Z,39.47
2022-11-12T18:43:06.979Z,36.47
2022-11-12T18:45:33.339Z,36.83
2022-11-12T18:47:59.546Z,35.38
2022-11-12T18:50:25.817Z,44.35
2022-11-12T18:52:52.009Z,37.38
2022-11-12T18:55:18.240Z,35.70
2022-11-12T18:57:44.424Z,36.55
2022-11-12T19:00:10.614Z,40.92
2022-11-12T19:02:36.824Z,49.47
2022-11-12T19:05:03.002Z,43.67
2022-11-12T19:07:29.282Z,34.83
2022-11-12T19:09:55.476Z,38.65
2022-11-12T19:12:21.672Z,51.53
2022-11-12T19:14:47.863Z,33.92
2022-11-12T19:17:14.049Z,39.67
2022-11-12T19:19:40.265Z,40.63
2022-11-12T19:22:06.680Z,53.10
2022-11-12T19:24:32.891Z,39.08
2022-11-12T19:26:59.114Z,42.03
2022-11-12T19:29:25.330Z,37.20
2022-11-12T19:31:51.545Z,40.35
2022-11-12T19:34:17.738Z,35.05
2022-11-12T19:36:43.933Z,36.75
2022-11-12T19:39:10.140Z,36.33
2022-11-12T19:41:36.331Z,37.38
2022-11-12T19:44:04.236Z,38.33
2022-11-12T19:46:32.343Z,37.00
2022-11-12T19:51:24.875Z,35.45
2022-11-12T19:53:51.100Z,38.08
2022-11-12T19:56:17.472Z,41.60
2022-11-12T19:58:43.685Z,35.70
2022-11-12T20:01:09.919Z,37.67
2022-11-12T20:03:36.166Z,38.67
2022-11-12T20:06:02.373Z,35.78
2022-11-12T20:08:29.019Z,34.30
2022-11-12T20:10:55.398Z,34.40
2022-11-12T20:13:21.637Z,32.47
2022-11-12T20:15:47.843Z,38.53
2022-11-12T20:18:14.037Z,42.00
2022-11-12T20:20:40.272Z,34.83
2022-11-12T20:23:06.518Z,38.10
2022-11-12T20:25:32.711Z,36.67
2022-11-12T20:27:58.919Z,41.33
2022-11-12T20:30:25.120Z,37.42
2022-11-12T20:32:51.329Z,36.80
2022-11-12T20:35:22.011Z,39.42
2022-11-12T20:37:49.997Z,39.50
2022-11-12T20:40:16.265Z,37.05
2022-11-12T20:42:42.894Z,37.92
2022-11-12T20:45:09.087Z,36.22
2022-11-12T20:47:35.341Z,33.15
2022-11-12T20:50:01.551Z,37.78
2022-11-12T20:52:27.774Z,38.95
2022-11-12T20:54:53.959Z,37.08
2022-11-12T20:57:20.159Z,38.90
2022-11-12T20:59:49.132Z,35.10
2022-11-12T21:02:17.392Z,34.67
2022-11-12T21:04:43.849Z,35.00
2022-11-12T21:07:10.369Z,37.50
2022-11-12T21:09:36.620Z,39.72
2022-11-12T21:12:02.808Z,38.83
2022-11-12T21:14:28.997Z,37.42
2022-11-12T21:16:55.191Z,37.25
2022-11-12T21:19:21.402Z,35.13
2022-11-12T21:21:47.586Z,33.30
2022-11-12T21:24:13.968Z,38.33
2022-11-12T21:26:40.211Z,34.55
2022-11-12T21:29:07.148Z,35.67
2022-11-12T21:31:33.362Z,36.67
2022-11-12T21:34:00.423Z,34.95
2022-11-12T21:36:26.615Z,38.03
2022-11-12T21:38:52.922Z,31.85
2022-11-12T21:41:19.118Z,39.22
2022-11-12T21:43:45.522Z,32.28
2022-11-12T21:46:11.735Z,38.45
2022-11-12T21:48:37.922Z,34.97
2022-11-12T21:51:04.159Z,37.72
2022-11-12T21:53:30.367Z,34.95
2022-11-12T21:55:56.554Z,38.78
2022-11-12T21:58:22.757Z,37.10
2022-11-12T22:00:48.952Z,37.75
2022-11-12T22:03:15.211Z,37.88
2022-11-12T22:05:41.395Z,43.10
2022-11-12T22:08:07.655Z,37.95
2022-11-12T22:10:33.898Z,44.78
2022-11-12T22:13:25.320Z,40.17
2022-11-12T22:15:46.348Z,39.38
2022-11-12T22:18:12.582Z,37.50
2022-11-12T22:20:38.783Z,36.78
2022-11-12T22:23:05.004Z,38.13
2022-11-12T22:25:31.194Z,37.97
2022-11-12T22:28:01.193Z,36.78
2022-11-12T22:30:27.388Z,35.67
2022-11-12T22:32:53.643Z,38.03
2022-11-12T22:35:19.821Z,38.80
2022-11-12T22:37:46.080Z,38.10
2022-11-12T22:40:13.655Z,39.22
2022-11-12T22:42:40.095Z,38.15
2022-11-12T22:45:06.289Z,54.97
2022-11-12T22:47:32.526Z,40.72
2022-11-12T22:49:58.859Z,39.05
2022-11-12T22:52:25.046Z,34.95
2022-11-12T22:54:51.232Z,39.95
2022-11-12T22:57:17.428Z,41.85
2022-11-12T22:59:43.675Z,40.22
2022-11-12T23:02:09.867Z,40.08
2022-11-12T23:04:36.052Z,35.40
2022-11-12T23:07:02.361Z,38.80
2022-11-12T23:09:28.570Z,35.67
2022-11-12T23:11:54.786Z,37.22
2022-11-12T23:14:21.146Z,38.08
2022-11-12T23:16:47.349Z,40.00
2022-11-12T23:19:13.569Z,37.97
2022-11-12T23:21:39.777Z,42.55
2022-11-12T23:24:05.962Z,38.92
2022-11-12T23:26:33.277Z,38.92
2022-11-12T23:28:59.551Z,39.55
2022-11-12T23:31:25.734Z,39.42
2022-11-12T23:33:51.924Z,45.22
2022-11-12T23:36:18.126Z,37.97
2022-11-12T23:38:44.360Z,38.28
2022-11-12T23:41:10.602Z,39.33
2022-11-12T23:43:36.792Z,37.42
2022-11-12T23:46:02.982Z,40.58
2022-11-12T23:48:29.566Z,35.63
2022-11-12T23:50:55.947Z,40.90
2022-11-12T23:53:22.216Z,34.95
2022-11-12T23:55:48.410Z,37.88
2022-11-12T23:58:14.598Z,34.20
